sensor_id;sensor_type;location;lat;lon;timestamp;temperature;humidity
54264;DHT22;40178;53.042;6.406;2023-03-21T00:01:14;9.20;99.90
54264;DHT22;40178;53.042;6.406;2023-03-21T00:03:40;9.00;99.90
54264;DHT22;40178;53.042;6.406;2023-03-21T00:06:09;9.20;99.90
54264;DHT22;40178;53.042;6.406;2023-03-21T00:08:36;9.20;99.90
54264;DHT22;40178;53.042;6.406;2023-03-21T00:11:04;9.00;99.90
54264;DHT22;40178;53.042;6.406;2023-03-21T00:13:31;9.20;99.90
54264;DHT22;40178;53.042;6.406;2023-03-21T00:18:34;9.20;99.90
54264;DHT22;40178;53.042;6.406;2023-03-21T00:21:07;9.30;99.90
54264;DHT22;40178;53.042;6.406;2023-03-21T00:23:34;9.20;99.90
54264;DHT22;40178;53.042;6.406;2023-03-21T00:26:01;9.20;99.90
54264;DHT22;40178;53.042;6.406;2023-03-21T00:28:27;9.10;99.90
54264;DHT22;40178;53.042;6.406;2023-03-21T00:30:57;9.00;99.90
54264;DHT22;40178;53.042;6.406;2023-03-21T00:33:23;9.10;99.90
54264;DHT22;40178;53.042;6.406;2023-03-21T00:35:50;9.00;99.90
54264;DHT22;40178;53.042;6.406;2023-03-21T00:38:17;9.10;99.90
54264;DHT22;40178;53.042;6.406;2023-03-21T00:40:43;9.20;99.90
54264;DHT22;40178;53.042;6.406;2023-03-21T00:43:09;9.10;99.90
54264;DHT22;40178;53.042;6.406;2023-03-21T00:45:45;9.00;99.90
54264;DHT22;40178;53.042;6.406;2023-03-21T00:48:12;9.10;99.90
54264;DHT22;40178;53.042;6.406;2023-03-21T00:50:39;9.20;99.90
54264;DHT22;40178;53.042;6.406;2023-03-21T00:53:05;9.20;99.90
54264;DHT22;40178;53.042;6.406;2023-03-21T00:55:31;9.10;99.90
54264;DHT22;40178;53.042;6.406;2023-03-21T00:57:57;9.20;99.90
54264;DHT22;40178;53.042;6.406;2023-03-21T01:00:23;9.20;99.90
54264;DHT22;40178;53.042;6.406;2023-03-21T01:02:48;9.10;99.90
54264;DHT22;40178;53.042;6.406;2023-03-21T01:05:25;9.20;99.90
54264;DHT22;40178;53.042;6.406;2023-03-21T01:08:11;9.30;99.90
54264;DHT22;40178;53.042;6.406;2023-03-21T01:10:42;9.20;99.90
54264;DHT22;40178;53.042;6.406;2023-03-21T01:13:09;9.10;99.90
54264;DHT22;40178;53.042;6.406;2023-03-21T01:15:36;9.10;99.90
54264;DHT22;40178;53.042;6.406;2023-03-21T01:18:06;9.10;99.90
54264;DHT22;40178;53.042;6.406;2023-03-21T01:20:32;9.10;99.90
54264;DHT22;40178;53.042;6.406;2023-03-21T01:22:57;9.10;99.90
54264;DHT22;40178;53.042;6.406;2023-03-21T01:25:23;9.20;99.90
54264;DHT22;40178;53.042;6.406;2023-03-21T01:27:49;9.30;99.90
54264;DHT22;40178;53.042;6.406;2023-03-21T01:30:14;9.10;99.90
54264;DHT22;40178;53.042;6.406;2023-03-21T01:32:40;9.20;99.90
54264;DHT22;40178;53.042;6.406;2023-03-21T01:35:06;9.20;99.90
54264;DHT22;40178;53.042;6.406;2023-03-21T01:37:34;9.20;99.90
54264;DHT22;40178;53.042;6.406;2023-03-21T01:40:00;9.90;99.90
54264;DHT22;40178;53.042;6.406;2023-03-21T01:42:26;9.50;99.90
54264;DHT22;40178;53.042;6.406;2023-03-21T01:48:05;9.20;99.90
54264;DHT22;40178;53.042;6.406;2023-03-21T01:50:31;10.10;99.90
54264;DHT22;40178;53.042;6.406;2023-03-21T01:52:56;9.20;99.90
54264;DHT22;40178;53.042;6.406;2023-03-21T01:55:22;9.20;99.90
54264;DHT22;40178;53.042;6.406;2023-03-21T01:57:53;10.40;99.90
54264;DHT22;40178;53.042;6.406;2023-03-21T02:00:23;10.40;99.90
54264;DHT22;40178;53.042;6.406;2023-03-21T02:02:51;9.40;99.90
54264;DHT22;40178;53.042;6.406;2023-03-21T02:05:29;9.50;99.90
54264;DHT22;40178;53.042;6.406;2023-03-21T02:08:00;10.00;99.90
54264;DHT22;40178;53.042;6.406;2023-03-21T02:10:27;10.50;99.90
54264;DHT22;40178;53.042;6.406;2023-03-21T02:13:02;9.40;99.90
54264;DHT22;40178;53.042;6.406;2023-03-21T02:15:35;9.30;99.90
54264;DHT22;40178;53.042;6.406;2023-03-21T02:27:22;9.20;99.90
54264;DHT22;40178;53.042;6.406;2023-03-21T02:29:57;9.40;99.90
54264;DHT22;40178;53.042;6.406;2023-03-21T02:32:54;9.40;99.90
54264;DHT22;40178;53.042;6.406;2023-03-21T02:36:08;9.20;99.90
54264;DHT22;40178;53.042;6.406;2023-03-21T02:38:54;9.40;99.90
54264;DHT22;40178;53.042;6.406;2023-03-21T02:41:40;9.20;99.90
54264;DHT22;40178;53.042;6.406;2023-03-21T02:44:20;9.20;99.90
54264;DHT22;40178;53.042;6.406;2023-03-21T02:46:51;9.40;99.90
54264;DHT22;40178;53.042;6.406;2023-03-21T02:49:30;9.20;99.90
54264;DHT22;40178;53.042;6.406;2023-03-21T02:51:58;9.40;99.90
54264;DHT22;40178;53.042;6.406;2023-03-21T02:54:26;9.30;99.90
54264;DHT22;40178;53.042;6.406;2023-03-21T02:56:54;9.30;99.90
54264;DHT22;40178;53.042;6.406;2023-03-21T02:59:22;9.40;99.90
54264;DHT22;40178;53.042;6.406;2023-03-21T03:01:51;9.30;99.90
54264;DHT22;40178;53.042;6.406;2023-03-21T03:04:23;9.40;99.90
54264;DHT22;40178;53.042;6.406;2023-03-21T03:18:27;9.30;99.90
54264;DHT22;40178;53.042;6.406;2023-03-21T03:23:54;9.30;99.90
54264;DHT22;40178;53.042;6.406;2023-03-21T03:26:32;9.20;99.90
54264;DHT22;40178;53.042;6.406;2023-03-21T03:29:02;9.20;99.90
54264;DHT22;40178;53.042;6.406;2023-03-21T03:31:32;9.20;99.90
54264;DHT22;40178;53.042;6.406;2023-03-21T03:34:05;9.30;99.90
54264;DHT22;40178;53.042;6.406;2023-03-21T03:36:36;9.30;99.90
54264;DHT22;40178;53.042;6.406;2023-03-21T03:39:06;9.30;99.90
54264;DHT22;40178;53.042;6.406;2023-03-21T03:41:47;9.30;99.90
54264;DHT22;40178;53.042;6.406;2023-03-21T03:44:15;9.30;99.90
54264;DHT22;40178;53.042;6.406;2023-03-21T03:46:52;9.40;99.90
54264;DHT22;40178;53.042;6.406;2023-03-21T03:49:40;9.20;99.90
54264;DHT22;40178;53.042;6.406;2023-03-21T03:52:16;9.20;99.90
54264;DHT22;40178;53.042;6.406;2023-03-21T03:54:44;9.30;99.90
54264;DHT22;40178;53.042;6.406;2023-03-21T03:57:11;9.30;99.90
54264;DHT22;40178;53.042;6.406;2023-03-21T03:59:40;9.40;99.90
54264;DHT22;40178;53.042;6.406;2023-03-21T04:02:07;9.40;99.90
54264;DHT22;40178;53.042;6.406;2023-03-21T04:04:33;9.30;99.90
54264;DHT22;40178;53.042;6.406;2023-03-21T04:06:58;9.30;99.90
54264;DHT22;40178;53.042;6.406;2023-03-21T04:09:25;9.30;99.90
54264;DHT22;40178;53.042;6.406;2023-03-21T04:11:55;9.20;99.90
54264;DHT22;40178;53.042;6.406;2023-03-21T04:14:21;9.40;99.90
54264;DHT22;40178;53.042;6.406;2023-03-21T04:16:47;9.20;99.90
54264;DHT22;40178;53.042;6.406;2023-03-21T04:19:13;9.30;99.90
54264;DHT22;40178;53.042;6.406;2023-03-21T04:21:40;9.20;99.90
54264;DHT22;40178;53.042;6.406;2023-03-21T04:24:06;9.40;99.90
54264;DHT22;40178;53.042;6.406;2023-03-21T04:26:32;9.30;99.90
54264;DHT22;40178;53.042;6.406;2023-03-21T04:29:00;9.40;99.90
54264;DHT22;40178;53.042;6.406;2023-03-21T04:31:26;9.20;99.90
54264;DHT22;40178;53.042;6.406;2023-03-21T04:33:53;9.30;99.90
54264;DHT22;40178;53.042;6.406;2023-03-21T04:36:20;9.40;99.90
54264;DHT22;40178;53.042;6.406;2023-03-21T04:38:52;9.50;99.90
54264;DHT22;40178;53.042;6.406;2023-03-21T04:41:18;9.20;99.90
54264;DHT22;40178;53.042;6.406;2023-03-21T04:43:44;9.20;99.90
54264;DHT22;40178;53.042;6.406;2023-03-21T04:46:10;9.30;99.90
54264;DHT22;40178;53.042;6.406;2023-03-21T04:48:36;9.30;99.90
54264;DHT22;40178;53.042;6.406;2023-03-21T04:51:02;9.40;99.90
54264;DHT22;40178;53.042;6.406;2023-03-21T04:53:28;9.30;99.90
54264;DHT22;40178;53.042;6.406;2023-03-21T04:55:53;9.40;99.90
54264;DHT22;40178;53.042;6.406;2023-03-21T04:58:19;9.40;99.90
54264;DHT22;40178;53.042;6.406;2023-03-21T05:00:45;9.40;99.90
54264;DHT22;40178;53.042;6.406;2023-03-21T05:03:12;9.20;99.90
54264;DHT22;40178;53.042;6.406;2023-03-21T05:05:44;9.40;99.90
54264;DHT22;40178;53.042;6.406;2023-03-21T05:08:11;9.40;99.90
54264;DHT22;40178;53.042;6.406;2023-03-21T05:10:37;9.40;99.90
54264;DHT22;40178;53.042;6.406;2023-03-21T05:13:03;9.30;99.90
54264;DHT22;40178;53.042;6.406;2023-03-21T05:15:29;9.40;99.90
54264;DHT22;40178;53.042;6.406;2023-03-21T05:17:55;9.50;99.90
54264;DHT22;40178;53.042;6.406;2023-03-21T05:20:26;9.30;99.90
54264;DHT22;40178;53.042;6.406;2023-03-21T05:22:51;9.40;99.90
54264;DHT22;40178;53.042;6.406;2023-03-21T05:25:17;9.40;99.90
54264;DHT22;40178;53.042;6.406;2023-03-21T05:27:46;9.40;99.90
54264;DHT22;40178;53.042;6.406;2023-03-21T05:30:18;9.30;99.90
54264;DHT22;40178;53.042;6.406;2023-03-21T05:32:45;9.30;99.90
54264;DHT22;40178;53.042;6.406;2023-03-21T05:35:10;9.30;99.90
54264;DHT22;40178;53.042;6.406;2023-03-21T05:37:36;9.40;99.90
54264;DHT22;40178;53.042;6.406;2023-03-21T05:40:04;9.30;99.90
54264;DHT22;40178;53.042;6.406;2023-03-21T05:42:32;9.30;99.90
54264;DHT22;40178;53.042;6.406;2023-03-21T05:44:57;9.40;99.90
54264;DHT22;40178;53.042;6.406;2023-03-21T05:47:23;9.30;99.90
54264;DHT22;40178;53.042;6.406;2023-03-21T05:49:48;9.30;99.90
54264;DHT22;40178;53.042;6.406;2023-03-21T05:52:15;9.30;99.90
54264;DHT22;40178;53.042;6.406;2023-03-21T05:54:41;9.40;99.90
54264;DHT22;40178;53.042;6.406;2023-03-21T05:57:06;9.40;99.90
54264;DHT22;40178;53.042;6.406;2023-03-21T05:59:32;9.30;99.90
54264;DHT22;40178;53.042;6.406;2023-03-21T06:01:58;9.30;99.90
54264;DHT22;40178;53.042;6.406;2023-03-21T06:04:23;9.40;99.90
54264;DHT22;40178;53.042;6.406;2023-03-21T06:06:50;9.30;99.90
54264;DHT22;40178;53.042;6.406;2023-03-21T06:09:20;9.30;99.90
54264;DHT22;40178;53.042;6.406;2023-03-21T06:11:49;9.40;99.90
54264;DHT22;40178;53.042;6.406;2023-03-21T06:14:16;9.30;99.90
54264;DHT22;40178;53.042;6.406;2023-03-21T06:16:42;9.40;99.90
54264;DHT22;40178;53.042;6.406;2023-03-21T06:19:07;9.40;99.90
54264;DHT22;40178;53.042;6.406;2023-03-21T06:21:33;9.50;99.90
54264;DHT22;40178;53.042;6.406;2023-03-21T06:23:59;9.50;99.90
54264;DHT22;40178;53.042;6.406;2023-03-21T06:26:24;9.40;99.90
54264;DHT22;40178;53.042;6.406;2023-03-21T06:28:51;9.40;99.90
54264;DHT22;40178;53.042;6.406;2023-03-21T06:31:17;9.50;99.90
54264;DHT22;40178;53.042;6.406;2023-03-21T06:33:43;9.50;99.90
54264;DHT22;40178;53.042;6.406;2023-03-21T06:36:09;9.40;99.90
54264;DHT22;40178;53.042;6.406;2023-03-21T06:38:35;9.50;99.90
54264;DHT22;40178;53.042;6.406;2023-03-21T06:41:03;9.40;99.90
54264;DHT22;40178;53.042;6.406;2023-03-21T06:43:29;9.50;99.90
54264;DHT22;40178;53.042;6.406;2023-03-21T06:45:56;9.40;99.90
54264;DHT22;40178;53.042;6.406;2023-03-21T06:48:22;9.40;99.90
54264;DHT22;40178;53.042;6.406;2023-03-21T06:50:49;9.50;99.90
54264;DHT22;40178;53.042;6.406;2023-03-21T06:53:16;9.60;99.90
54264;DHT22;40178;53.042;6.406;2023-03-21T06:55:41;9.50;99.90
54264;DHT22;40178;53.042;6.406;2023-03-21T06:58:07;9.70;99.90
54264;DHT22;40178;53.042;6.406;2023-03-21T07:00:33;9.60;99.90
54264;DHT22;40178;53.042;6.406;2023-03-21T07:02:58;9.60;99.90
54264;DHT22;40178;53.042;6.406;2023-03-21T07:05:26;9.60;99.90
54264;DHT22;40178;53.042;6.406;2023-03-21T07:07:51;9.60;99.90
54264;DHT22;40178;53.042;6.406;2023-03-21T07:10:17;9.70;99.90
54264;DHT22;40178;53.042;6.406;2023-03-21T07:12:43;9.70;99.90
54264;DHT22;40178;53.042;6.406;2023-03-21T07:15:09;9.70;99.90
54264;DHT22;40178;53.042;6.406;2023-03-21T07:17:34;9.70;99.90
54264;DHT22;40178;53.042;6.406;2023-03-21T07:20:01;9.60;99.90
54264;DHT22;40178;53.042;6.406;2023-03-21T07:22:30;9.60;99.90
54264;DHT22;40178;53.042;6.406;2023-03-21T07:24:56;9.70;99.90
54264;DHT22;40178;53.042;6.406;2023-03-21T07:27:22;9.80;99.90
54264;DHT22;40178;53.042;6.406;2023-03-21T07:29:47;9.80;99.90
54264;DHT22;40178;53.042;6.406;2023-03-21T07:32:14;9.70;99.90
54264;DHT22;40178;53.042;6.406;2023-03-21T07:34:40;9.90;99.90
54264;DHT22;40178;53.042;6.406;2023-03-21T07:37:06;9.90;99.90
54264;DHT22;40178;53.042;6.406;2023-03-21T07:39:32;9.70;99.90
54264;DHT22;40178;53.042;6.406;2023-03-21T07:41:59;9.80;99.90
54264;DHT22;40178;53.042;6.406;2023-03-21T07:44:25;9.70;99.90
54264;DHT22;40178;53.042;6.406;2023-03-21T07:46:50;9.70;99.90
54264;DHT22;40178;53.042;6.406;2023-03-21T07:49:16;9.60;99.90
54264;DHT22;40178;53.042;6.406;2023-03-21T07:51:42;9.70;99.90
54264;DHT22;40178;53.042;6.406;2023-03-21T07:54:07;9.70;99.90
54264;DHT22;40178;53.042;6.406;2023-03-21T07:56:33;9.70;99.90
54264;DHT22;40178;53.042;6.406;2023-03-21T07:58:58;9.80;99.90
54264;DHT22;40178;53.042;6.406;2023-03-21T08:01:27;9.70;99.90
54264;DHT22;40178;53.042;6.406;2023-03-21T08:03:53;9.70;99.90
54264;DHT22;40178;53.042;6.406;2023-03-21T08:06:19;9.90;99.90
54264;DHT22;40178;53.042;6.406;2023-03-21T08:08:45;9.70;99.90
54264;DHT22;40178;53.042;6.406;2023-03-21T08:11:12;9.70;99.90
54264;DHT22;40178;53.042;6.406;2023-03-21T08:13:38;9.70;99.90
54264;DHT22;40178;53.042;6.406;2023-03-21T08:16:04;9.90;99.90
54264;DHT22;40178;53.042;6.406;2023-03-21T08:18:29;9.70;99.90
54264;DHT22;40178;53.042;6.406;2023-03-21T08:20:56;9.70;99.90
54264;DHT22;40178;53.042;6.406;2023-03-21T08:23:23;9.80;99.90
54264;DHT22;40178;53.042;6.406;2023-03-21T08:25:53;9.70;99.90
54264;DHT22;40178;53.042;6.406;2023-03-21T08:28:19;9.80;99.90
54264;DHT22;40178;53.042;6.406;2023-03-21T08:30:45;9.70;99.90
54264;DHT22;40178;53.042;6.406;2023-03-21T08:33:11;9.70;99.90
54264;DHT22;40178;53.042;6.406;2023-03-21T08:35:38;9.80;99.90
54264;DHT22;40178;53.042;6.406;2023-03-21T08:38:04;9.70;99.90
54264;DHT22;40178;53.042;6.406;2023-03-21T08:40:31;9.80;99.90
54264;DHT22;40178;53.042;6.406;2023-03-21T08:42:57;9.70;99.90
54264;DHT22;40178;53.042;6.406;2023-03-21T08:45:23;9.70;99.90
54264;DHT22;40178;53.042;6.406;2023-03-21T08:47:50;9.90;99.90
54264;DHT22;40178;53.042;6.406;2023-03-21T08:50:20;9.70;99.90
54264;DHT22;40178;53.042;6.406;2023-03-21T08:52:47;9.80;99.90
54264;DHT22;40178;53.042;6.406;2023-03-21T08:55:14;9.70;99.90
54264;DHT22;40178;53.042;6.406;2023-03-21T08:57:40;9.80;99.90
54264;DHT22;40178;53.042;6.406;2023-03-21T09:00:08;9.70;99.90
54264;DHT22;40178;53.042;6.406;2023-03-21T09:02:40;9.70;99.90
54264;DHT22;40178;53.042;6.406;2023-03-21T09:05:06;9.70;99.90
54264;DHT22;40178;53.042;6.406;2023-03-21T09:07:33;9.80;99.90
54264;DHT22;40178;53.042;6.406;2023-03-21T09:10:02;9.90;99.90
54264;DHT22;40178;53.042;6.406;2023-03-21T09:12:27;9.90;99.90
54264;DHT22;40178;53.042;6.406;2023-03-21T09:14:53;9.80;99.90
54264;DHT22;40178;53.042;6.406;2023-03-21T09:17:19;9.90;99.90
54264;DHT22;40178;53.042;6.406;2023-03-21T09:19:44;9.80;99.90
54264;DHT22;40178;53.042;6.406;2023-03-21T09:22:15;9.90;99.90
54264;DHT22;40178;53.042;6.406;2023-03-21T09:24:45;10.00;99.90
54264;DHT22;40178;53.042;6.406;2023-03-21T09:27:12;9.70;99.90
54264;DHT22;40178;53.042;6.406;2023-03-21T09:29:39;9.70;99.90
54264;DHT22;40178;53.042;6.406;2023-03-21T09:32:08;9.60;99.90
54264;DHT22;40178;53.042;6.406;2023-03-21T09:34:34;9.80;99.90
54264;DHT22;40178;53.042;6.406;2023-03-21T09:37:02;9.70;99.90
54264;DHT22;40178;53.042;6.406;2023-03-21T09:39:28;9.70;99.90
54264;DHT22;40178;53.042;6.406;2023-03-21T09:42:09;9.80;99.90
54264;DHT22;40178;53.042;6.406;2023-03-21T09:47:24;9.70;99.90
54264;DHT22;40178;53.042;6.406;2023-03-21T09:49:57;9.80;99.90
54264;DHT22;40178;53.042;6.406;2023-03-21T09:52:42;9.80;99.90
54264;DHT22;40178;53.042;6.406;2023-03-21T09:55:31;9.90;99.90
54264;DHT22;40178;53.042;6.406;2023-03-21T09:58:18;9.80;99.90
54264;DHT22;40178;53.042;6.406;2023-03-21T10:00:53;9.90;99.90
54264;DHT22;40178;53.042;6.406;2023-03-21T10:03:28;9.90;99.90
54264;DHT22;40178;53.042;6.406;2023-03-21T10:05:55;9.80;99.90
54264;DHT22;40178;53.042;6.406;2023-03-21T10:08:31;9.80;99.90
54264;DHT22;40178;53.042;6.406;2023-03-21T10:11:10;9.90;99.90
54264;DHT22;40178;53.042;6.406;2023-03-21T10:14:04;9.90;99.90
54264;DHT22;40178;53.042;6.406;2023-03-21T10:16:35;10.00;99.90
54264;DHT22;40178;53.042;6.406;2023-03-21T10:19:11;9.90;99.90
54264;DHT22;40178;53.042;6.406;2023-03-21T10:21:39;10.00;99.90
54264;DHT22;40178;53.042;6.406;2023-03-21T10:24:13;10.10;99.90
54264;DHT22;40178;53.042;6.406;2023-03-21T10:26:39;10.10;99.90
54264;DHT22;40178;53.042;6.406;2023-03-21T10:29:05;10.20;99.90
54264;DHT22;40178;53.042;6.406;2023-03-21T10:31:32;10.10;99.90
54264;DHT22;40178;53.042;6.406;2023-03-21T10:34:06;10.20;99.90
54264;DHT22;40178;53.042;6.406;2023-03-21T10:36:34;10.30;99.90
54264;DHT22;40178;53.042;6.406;2023-03-21T10:39:05;10.40;99.90
54264;DHT22;40178;53.042;6.406;2023-03-21T10:41:33;10.30;99.90
54264;DHT22;40178;53.042;6.406;2023-03-21T10:44:10;10.40;99.90
54264;DHT22;40178;53.042;6.406;2023-03-21T10:46:37;10.40;99.90
54264;DHT22;40178;53.042;6.406;2023-03-21T10:49:06;10.60;99.90
54264;DHT22;40178;53.042;6.406;2023-03-21T10:51:35;10.60;99.90
54264;DHT22;40178;53.042;6.406;2023-03-21T10:54:07;10.60;99.90
54264;DHT22;40178;53.042;6.406;2023-03-21T10:56:48;10.90;99.90
54264;DHT22;40178;53.042;6.406;2023-03-21T10:59:18;10.70;99.90
54264;DHT22;40178;53.042;6.406;2023-03-21T11:01:50;10.80;99.90
54264;DHT22;40178;53.042;6.406;2023-03-21T11:04:25;11.00;99.90
54264;DHT22;40178;53.042;6.406;2023-03-21T11:06:54;10.90;99.90
54264;DHT22;40178;53.042;6.406;2023-03-21T11:09:23;11.10;99.90
54264;DHT22;40178;53.042;6.406;2023-03-21T11:14:45;11.10;99.90
54264;DHT22;40178;53.042;6.406;2023-03-21T11:19:47;11.30;99.90
54264;DHT22;40178;53.042;6.406;2023-03-21T11:22:14;11.20;99.90
54264;DHT22;40178;53.042;6.406;2023-03-21T11:24:41;11.20;99.90
54264;DHT22;40178;53.042;6.406;2023-03-21T11:27:11;11.20;99.90
54264;DHT22;40178;53.042;6.406;2023-03-21T11:29:45;11.20;99.90
54264;DHT22;40178;53.042;6.406;2023-03-21T11:32:34;11.20;99.90
54264;DHT22;40178;53.042;6.406;2023-03-21T11:40:28;11.40;99.90
54264;DHT22;40178;53.042;6.406;2023-03-21T11:42:58;11.30;99.90
54264;DHT22;40178;53.042;6.406;2023-03-21T11:47:54;11.30;99.90
54264;DHT22;40178;53.042;6.406;2023-03-21T11:58:43;11.40;99.90
54264;DHT22;40178;53.042;6.406;2023-03-21T12:06:35;11.30;99.90
54264;DHT22;40178;53.042;6.406;2023-03-21T12:39:38;11.00;99.90
54264;DHT22;40178;53.042;6.406;2023-03-21T12:44:55;11.10;99.90
54264;DHT22;40178;53.042;6.406;2023-03-21T12:47:25;11.10;99.90
54264;DHT22;40178;53.042;6.406;2023-03-21T12:52:38;11.10;99.90
54264;DHT22;40178;53.042;6.406;2023-03-21T12:55:26;11.10;99.90
54264;DHT22;40178;53.042;6.406;2023-03-21T12:58:06;11.30;99.90
54264;DHT22;40178;53.042;6.406;2023-03-21T13:00:50;11.50;99.90
54264;DHT22;40178;53.042;6.406;2023-03-21T13:03:28;11.70;99.90
54264;DHT22;40178;53.042;6.406;2023-03-21T13:06:04;11.80;99.90
54264;DHT22;40178;53.042;6.406;2023-03-21T13:08:43;12.00;99.90
54264;DHT22;40178;53.042;6.406;2023-03-21T13:11:14;12.10;99.90
54264;DHT22;40178;53.042;6.406;2023-03-21T13:16:22;12.20;99.90
54264;DHT22;40178;53.042;6.406;2023-03-21T13:24:25;12.20;99.90
54264;DHT22;40178;53.042;6.406;2023-03-21T13:27:02;12.20;99.90
54264;DHT22;40178;53.042;6.406;2023-03-21T13:29:46;12.10;99.90
54264;DHT22;40178;53.042;6.406;2023-03-21T13:32:23;12.20;99.90
54264;DHT22;40178;53.042;6.406;2023-03-21T13:34:54;12.30;99.90
54264;DHT22;40178;53.042;6.406;2023-03-21T13:37:48;12.30;99.90
54264;DHT22;40178;53.042;6.406;2023-03-21T13:40:57;12.30;99.90
54264;DHT22;40178;53.042;6.406;2023-03-21T13:53:18;12.00;99.90
54264;DHT22;40178;53.042;6.406;2023-03-21T13:58:59;12.00;99.90
54264;DHT22;40178;53.042;6.406;2023-03-21T14:04:19;12.20;99.90
54264;DHT22;40178;53.042;6.406;2023-03-21T14:06:58;12.20;99.90
54264;DHT22;40178;53.042;6.406;2023-03-21T14:10:35;12.40;99.90
54264;DHT22;40178;53.042;6.406;2023-03-21T14:13:18;12.60;99.90
54264;DHT22;40178;53.042;6.406;2023-03-21T14:16:18;12.70;99.90
54264;DHT22;40178;53.042;6.406;2023-03-21T14:18:52;12.80;99.90
54264;DHT22;40178;53.042;6.406;2023-03-21T14:21:21;13.10;99.90
54264;DHT22;40178;53.042;6.406;2023-03-21T14:23:58;13.10;99.90
54264;DHT22;40178;53.042;6.406;2023-03-21T14:26:27;13.00;99.90
54264;DHT22;40178;53.042;6.406;2023-03-21T14:28:53;13.00;99.90
54264;DHT22;40178;53.042;6.406;2023-03-21T14:31:20;12.80;99.90
54264;DHT22;40178;53.042;6.406;2023-03-21T14:33:50;12.60;99.90
54264;DHT22;40178;53.042;6.406;2023-03-21T14:36:24;12.50;99.90
54264;DHT22;40178;53.042;6.406;2023-03-21T14:39:06;12.50;99.90
54264;DHT22;40178;53.042;6.406;2023-03-21T14:41:44;12.40;99.90
54264;DHT22;40178;53.042;6.406;2023-03-21T14:44:24;12.50;99.90
54264;DHT22;40178;53.042;6.406;2023-03-21T14:49:35;12.70;99.90
54264;DHT22;40178;53.042;6.406;2023-03-21T14:52:03;12.70;99.90
54264;DHT22;40178;53.042;6.406;2023-03-21T14:54:31;12.70;99.90
54264;DHT22;40178;53.042;6.406;2023-03-21T14:57:02;12.60;99.90
54264;DHT22;40178;53.042;6.406;2023-03-21T14:59:33;12.50;99.90
54264;DHT22;40178;53.042;6.406;2023-03-21T15:02:02;12.30;99.90
54264;DHT22;40178;53.042;6.406;2023-03-21T15:04:57;12.30;99.90
54264;DHT22;40178;53.042;6.406;2023-03-21T15:07:28;12.10;99.90
54264;DHT22;40178;53.042;6.406;2023-03-21T15:09:57;12.60;99.90
54264;DHT22;40178;53.042;6.406;2023-03-21T15:12:25;12.40;99.90
54264;DHT22;40178;53.042;6.406;2023-03-21T15:14:51;12.10;99.90
54264;DHT22;40178;53.042;6.406;2023-03-21T15:17:18;12.20;99.90
54264;DHT22;40178;53.042;6.406;2023-03-21T15:19:44;12.10;99.90
54264;DHT22;40178;53.042;6.406;2023-03-21T15:22:29;12.10;99.90
54264;DHT22;40178;53.042;6.406;2023-03-21T15:24:59;12.00;99.90
54264;DHT22;40178;53.042;6.406;2023-03-21T15:27:27;12.00;99.90
54264;DHT22;40178;53.042;6.406;2023-03-21T15:29:55;12.00;99.90
54264;DHT22;40178;53.042;6.406;2023-03-21T15:32:26;12.00;99.90
54264;DHT22;40178;53.042;6.406;2023-03-21T15:35:05;12.00;99.90
54264;DHT22;40178;53.042;6.406;2023-03-21T15:37:35;11.90;99.90
54264;DHT22;40178;53.042;6.406;2023-03-21T15:40:18;11.90;99.90
54264;DHT22;40178;53.042;6.406;2023-03-21T15:42:44;11.90;99.90
54264;DHT22;40178;53.042;6.406;2023-03-21T15:50:25;11.90;99.90
54264;DHT22;40178;53.042;6.406;2023-03-21T15:52:52;11.90;99.90
54264;DHT22;40178;53.042;6.406;2023-03-21T15:55:21;11.80;99.90
54264;DHT22;40178;53.042;6.406;2023-03-21T15:57:50;11.90;99.90
54264;DHT22;40178;53.042;6.406;2023-03-21T16:02:44;11.80;99.90
54264;DHT22;40178;53.042;6.406;2023-03-21T16:05:28;11.90;99.90
54264;DHT22;40178;53.042;6.406;2023-03-21T16:08:18;11.80;99.90
54264;DHT22;40178;53.042;6.406;2023-03-21T16:10:44;11.90;99.90
54264;DHT22;40178;53.042;6.406;2023-03-21T16:13:10;11.80;99.90
54264;DHT22;40178;53.042;6.406;2023-03-21T16:15:38;11.80;99.90
54264;DHT22;40178;53.042;6.406;2023-03-21T16:18:05;11.90;99.90
54264;DHT22;40178;53.042;6.406;2023-03-21T16:20:35;11.80;99.90
54264;DHT22;40178;53.042;6.406;2023-03-21T16:23:02;11.80;99.90
54264;DHT22;40178;53.042;6.406;2023-03-21T16:25:29;11.90;99.90
54264;DHT22;40178;53.042;6.406;2023-03-21T16:27:55;11.70;99.90
54264;DHT22;40178;53.042;6.406;2023-03-21T16:30:21;11.50;99.90
54264;DHT22;40178;53.042;6.406;2023-03-21T16:32:47;11.40;99.90
54264;DHT22;40178;53.042;6.406;2023-03-21T16:35:15;11.40;99.90
54264;DHT22;40178;53.042;6.406;2023-03-21T16:37:40;11.30;99.90
54264;DHT22;40178;53.042;6.406;2023-03-21T16:40:26;11.20;99.90
54264;DHT22;40178;53.042;6.406;2023-03-21T16:42:53;11.10;99.90
54264;DHT22;40178;53.042;6.406;2023-03-21T16:45:19;11.00;99.90
54264;DHT22;40178;53.042;6.406;2023-03-21T16:47:45;11.00;99.90
54264;DHT22;40178;53.042;6.406;2023-03-21T16:50:34;11.20;99.90
54264;DHT22;40178;53.042;6.406;2023-03-21T16:53:01;10.90;99.90
54264;DHT22;40178;53.042;6.406;2023-03-21T16:55:27;10.90;99.90
54264;DHT22;40178;53.042;6.406;2023-03-21T16:57:54;10.90;99.90
54264;DHT22;40178;53.042;6.406;2023-03-21T17:00:24;10.90;99.90
54264;DHT22;40178;53.042;6.406;2023-03-21T17:02:53;10.90;99.90
54264;DHT22;40178;53.042;6.406;2023-03-21T17:05:24;10.90;99.90
54264;DHT22;40178;53.042;6.406;2023-03-21T17:07:51;10.90;99.90
54264;DHT22;40178;53.042;6.406;2023-03-21T17:10:24;10.90;99.90
54264;DHT22;40178;53.042;6.406;2023-03-21T17:12:50;11.10;99.90
54264;DHT22;40178;53.042;6.406;2023-03-21T17:15:16;11.00;99.90
54264;DHT22;40178;53.042;6.406;2023-03-21T17:17:41;11.00;99.90
54264;DHT22;40178;53.042;6.406;2023-03-21T17:20:42;11.00;99.90
54264;DHT22;40178;53.042;6.406;2023-03-21T17:23:13;10.90;99.90
54264;DHT22;40178;53.042;6.406;2023-03-21T17:25:39;11.70;99.90
54264;DHT22;40178;53.042;6.406;2023-03-21T17:28:08;11.00;99.90
54264;DHT22;40178;53.042;6.406;2023-03-21T17:30:36;10.90;99.90
54264;DHT22;40178;53.042;6.406;2023-03-21T17:33:05;10.90;99.90
54264;DHT22;40178;53.042;6.406;2023-03-21T17:35:35;10.90;99.90
54264;DHT22;40178;53.042;6.406;2023-03-21T17:38:04;10.90;99.90
54264;DHT22;40178;53.042;6.406;2023-03-21T17:40:32;10.80;99.90
54264;DHT22;40178;53.042;6.406;2023-03-21T17:43:00;10.80;99.90
54264;DHT22;40178;53.042;6.406;2023-03-21T17:45:27;10.70;99.90
54264;DHT22;40178;53.042;6.406;2023-03-21T17:47:54;10.80;99.90
54264;DHT22;40178;53.042;6.406;2023-03-21T17:50:24;10.70;99.90
54264;DHT22;40178;53.042;6.406;2023-03-21T17:52:52;10.70;99.90
54264;DHT22;40178;53.042;6.406;2023-03-21T17:55:20;10.60;99.90
54264;DHT22;40178;53.042;6.406;2023-03-21T17:57:47;10.60;99.90
54264;DHT22;40178;53.042;6.406;2023-03-21T18:00:22;10.50;99.90
54264;DHT22;40178;53.042;6.406;2023-03-21T18:02:49;10.50;99.90
54264;DHT22;40178;53.042;6.406;2023-03-21T18:05:15;10.40;99.90
54264;DHT22;40178;53.042;6.406;2023-03-21T18:07:42;10.40;99.90